Jeffersonville, Indiana
Current Conditions -  °F | °C
As of 3:53 AM on Saturday 20 Dec 2014 (Local Time) from KLOU Reporting Station
Haze Haze  
Wind Chill: 29°   Ceiling: 6000
Heat Index: 29°   Visibility: 6mi
Dew Point: 24°   Wind: 3mph
Humidity: 82%   Direction: 20°NNE
Pressure: 30.27"   Gusts: NA
Location:  38.28°N, 85.74°W
Report Text: KLOU 200853Z AUTO 02003KT 6SM HZ OVC060 M02/M04 A3027 RMK AO2 SNB0755E46 SLP255 P0000 60000 T10171044 58004
Loading
Personal Weather Stations






























Interactive Weather Map New forecast layout! Learn more

10-Day Weather Forecast

Advertisements
Track Severe Weather on mobile